Time;durP1;ratioP1;P1;durP2;ratioP2;P2;SDS_P1;SDS_P2;PMS_P1;PMS_P2;Temp;Humidity;BMP_temperature;BMP_pressure;BME280_temperature;BME280_humidity;BME280_pressure;Samples;Min_cycle;Max_cycle;Signal;HPM_P1;HPM_P2
2023/05/07 00:00:19;;;;;;;0.10;0.10;;;7.80;99.90;;;;;;5020143;28;20112;-74
2023/05/07 00:02:45;;;;;;;0.20;0.20;;;7.80;99.90;;;;;;5033833;28;20030;-75
2023/05/07 00:05:11;;;;;;;0.20;0.20;;;7.80;99.90;;;;;;5017443;28;20049;-75
2023/05/07 00:07:37;;;;;;;0.10;0.10;;;7.80;99.90;;;;;;5015042;28;20065;-75
2023/05/07 00:10:04;;;;;;;0.10;0.10;;;7.80;99.90;;;;;;5015487;28;20037;-75
2023/05/07 00:12:33;;;;;;;0.20;0.20;;;7.80;99.90;;;;;;5014541;28;20525;-74
2023/05/07 00:15:02;;;;;;;0.20;0.20;;;7.80;99.90;;;;;;5014965;28;20025;-75
2023/05/07 00:17:29;;;;;;;0.20;0.20;;;7.90;99.90;;;;;;5014927;28;20026;-75
2023/05/07 00:19:54;;;;;;;0.20;0.20;;;7.90;99.90;;;;;;5013516;28;20034;-75
2023/05/07 00:22:20;;;;;;;0.17;0.17;;;7.80;99.90;;;;;;5014944;28;20034;-74
2023/05/07 00:24:45;;;;;;;0.17;0.17;;;7.90;99.90;;;;;;5014752;28;20037;-75
2023/05/07 00:27:11;;;;;;;0.10;0.10;;;7.90;99.90;;;;;;5024906;28;20107;-75
2023/05/07 00:29:36;;;;;;;0.20;0.20;;;7.90;99.90;;;;;;5024757;28;20025;-74
2023/05/07 00:32:02;;;;;;;0.10;0.10;;;7.90;99.90;;;;;;5018761;28;20514;-75
2023/05/07 00:34:27;;;;;;;0.20;0.20;;;7.90;99.90;;;;;;5020518;28;20037;-74
2023/05/07 00:36:53;;;;;;;0.10;0.10;;;7.90;99.90;;;;;;5034235;28;20028;-74
2023/05/07 00:39:18;;;;;;;0.20;0.20;;;7.90;99.90;;;;;;5032672;28;20014;-74
2023/05/07 00:41:44;;;;;;;0.20;0.20;;;7.90;99.90;;;;;;5028837;28;20373;-74
2023/05/07 00:44:10;;;;;;;0.17;0.17;;;7.90;99.90;;;;;;5014694;28;20423;-74
2023/05/07 00:46:35;;;;;;;0.20;0.20;;;7.90;99.90;;;;;;5019230;28;20100;-74
2023/05/07 00:49:01;;;;;;;0.20;0.20;;;7.90;99.90;;;;;;5026771;28;20453;-74
2023/05/07 00:51:28;;;;;;;0.20;0.20;;;7.90;99.90;;;;;;5032556;28;20202;-75
2023/05/07 00:53:53;;;;;;;0.10;0.10;;;7.90;99.90;;;;;;5029103;28;20400;-75
2023/05/07 00:56:21;;;;;;;0.22;0.22;;;7.90;99.90;;;;;;5014427;28;20022;-75
2023/05/07 00:58:47;;;;;;;0.20;0.20;;;7.90;99.90;;;;;;5020126;28;20014;-74
2023/05/07 01:01:12;;;;;;;0.17;0.17;;;7.90;99.90;;;;;;5021902;28;20368;-74
2023/05/07 01:03:38;;;;;;;0.10;0.10;;;7.90;99.90;;;;;;5017848;28;20026;-74
2023/05/07 01:06:06;;;;;;;0.10;0.10;;;7.90;99.90;;;;;;5033441;28;20026;-75
2023/05/07 01:08:32;;;;;;;0.10;0.10;;;7.90;99.90;;;;;;5033322;28;20155;-74
2023/05/07 01:10:58;;;;;;;0.10;0.10;;;7.90;99.90;;;;;;5033785;28;20041;-75
2023/05/07 01:13:25;;;;;;;0.20;0.20;;;7.90;99.90;;;;;;5031108;28;20119;-75
2023/05/07 01:15:51;;;;;;;0.20;0.20;;;7.80;99.90;;;;;;5033749;28;20107;-74
2023/05/07 01:18:16;;;;;;;0.17;0.17;;;7.80;99.90;;;;;;5023453;28;20080;-74
2023/05/07 01:20:42;;;;;;;0.20;0.20;;;7.80;99.90;;;;;;5013645;28;20017;-75
2023/05/07 01:23:08;;;;;;;0.20;0.20;;;7.80;99.90;;;;;;5015658;28;20030;-74
2023/05/07 01:25:34;;;;;;;0.17;0.17;;;7.80;99.90;;;;;;5013979;28;20084;-75
2023/05/07 01:28:01;;;;;;;0.20;0.20;;;7.80;99.90;;;;;;5013002;28;20030;-74
2023/05/07 01:30:28;;;;;;;0.20;0.20;;;7.80;99.90;;;;;;5030309;28;20029;-74
2023/05/07 01:33:00;;;;;;;0.20;0.20;;;7.80;99.90;;;;;;5027447;28;20519;-74
2023/05/07 01:35:32;;;;;;;0.20;0.20;;;7.80;99.90;;;;;;5012365;28;20112;-75
2023/05/07 01:37:57;;;;;;;0.10;0.10;;;7.80;99.90;;;;;;5016344;28;20530;-74
2023/05/07 01:40:25;;;;;;;0.10;0.10;;;7.90;99.90;;;;;;5030102;28;20053;-75
2023/05/07 01:42:52;;;;;;;0.20;0.20;;;7.80;99.90;;;;;;5032631;28;20025;-74
2023/05/07 01:45:17;;;;;;;0.20;0.20;;;7.90;99.90;;;;;;5033210;28;20573;-75
2023/05/07 01:47:43;;;;;;;0.20;0.20;;;7.90;99.90;;;;;;5032757;28;20030;-74
2023/05/07 01:50:09;;;;;;;0.15;0.15;;;7.90;99.90;;;;;;5029050;28;20030;-75
2023/05/07 01:52:37;;;;;;;0.20;0.20;;;7.80;99.90;;;;;;5029213;28;20048;-75
2023/05/07 01:55:03;;;;;;;0.20;0.20;;;7.90;99.90;;;;;;5031233;28;20017;-75
2023/05/07 01:57:30;;;;;;;0.20;0.20;;;7.90;99.90;;;;;;5023676;28;20071;-75
2023/05/07 01:59:55;;;;;;;0.20;0.20;;;7.90;99.90;;;;;;5013167;28;20057;-75
2023/05/07 02:02:21;;;;;;;0.20;0.20;;;7.90;99.90;;;;;;5021257;28;20034;-75
2023/05/07 02:04:46;;;;;;;0.20;0.20;;;7.90;99.90;;;;;;5032986;28;20018;-75
2023/05/07 02:07:12;;;;;;;0.10;0.10;;;7.90;99.90;;;;;;5025559;28;20056;-75
2023/05/07 02:09:37;;;;;;;0.13;0.13;;;7.90;99.90;;;;;;5013282;28;20534;-75
2023/05/07 02:12:03;;;;;;;0.10;0.10;;;7.90;99.90;;;;;;5012339;28;20085;-74
2023/05/07 02:14:29;;;;;;;0.15;0.15;;;7.90;99.90;;;;;;5030884;28;20468;-74
2023/05/07 02:16:54;;;;;;;0.20;0.20;;;7.90;99.90;;;;;;5032421;28;20067;-74
2023/05/07 02:19:21;;;;;;;0.20;0.20;;;7.90;99.90;;;;;;5020146;28;20036;-75
2023/05/07 02:21:47;;;;;;;0.10;0.10;;;7.90;99.90;;;;;;5012822;28;20022;-75
2023/05/07 02:24:12;;;;;;;0.20;0.20;;;7.90;99.90;;;;;;5013048;28;20080;-75
2023/05/07 02:26:39;;;;;;;0.20;0.20;;;7.90;99.90;;;;;;5012853;28;20030;-74
2023/05/07 02:29:05;;;;;;;0.20;0.20;;;7.90;99.90;;;;;;5014866;28;20022;-74
2023/05/07 02:31:30;;;;;;;0.20;0.20;;;7.90;99.90;;;;;;5012572;28;20034;-75
2023/05/07 02:33:56;;;;;;;0.20;0.20;;;7.90;99.90;;;;;;5012502;28;20026;-75
2023/05/07 02:36:21;;;;;;;0.20;0.20;;;8.00;99.90;;;;;;5012937;28;20079;-75
2023/05/07 02:38:47;;;;;;;0.20;0.20;;;8.00;99.90;;;;;;5015060;28;20105;-75
2023/05/07 02:41:12;;;;;;;0.20;0.20;;;8.00;99.90;;;;;;5012771;28;20153;-75
2023/05/07 02:43:38;;;;;;;0.20;0.20;;;8.00;99.90;;;;;;5015214;28;20022;-75
2023/05/07 02:46:05;;;;;;;0.10;0.10;;;8.00;99.90;;;;;;5018684;28;20109;-75
2023/05/07 02:48:31;;;;;;;0.20;0.20;;;8.00;99.90;;;;;;5016492;28;20123;-74
2023/05/07 02:50:57;;;;;;;0.20;0.20;;;8.00;99.90;;;;;;5019981;28;20052;-75
2023/05/07 02:53:25;;;;;;;0.30;0.30;;;8.00;99.90;;;;;;5018914;28;20032;-75
2023/05/07 02:55:50;;;;;;;0.20;0.20;;;8.00;99.90;;;;;;5015552;28;20014;-74
2023/05/07 02:58:16;;;;;;;0.20;0.20;;;8.00;99.90;;;;;;5016490;28;20080;-74
2023/05/07 03:00:41;;;;;;;0.22;0.22;;;8.10;99.90;;;;;;5016295;28;20029;-75
2023/05/07 03:03:07;;;;;;;0.20;0.20;;;8.10;99.90;;;;;;5026111;28;20039;-74
2023/05/07 03:05:33;;;;;;;0.20;0.20;;;8.10;99.90;;;;;;5035920;28;20083;-74
2023/05/07 03:07:59;;;;;;;0.20;0.20;;;8.10;99.90;;;;;;5031208;28;20116;-74
2023/05/07 03:10:25;;;;;;;0.10;0.10;;;8.10;99.90;;;;;;5032134;28;20114;-75
2023/05/07 03:12:50;;;;;;;0.10;0.10;;;8.10;99.90;;;;;;5035014;28;20056;-75
2023/05/07 03:15:16;;;;;;;0.20;0.20;;;8.10;99.90;;;;;;5020577;28;20025;-74
2023/05/07 03:17:42;;;;;;;0.20;0.20;;;8.10;99.90;;;;;;5015633;28;20021;-74
2023/05/07 03:20:09;;;;;;;0.15;0.15;;;8.10;99.90;;;;;;5018225;28;20034;-74
2023/05/07 03:22:34;;;;;;;0.20;0.20;;;8.10;99.90;;;;;;5015579;28;20060;-74
2023/05/07 03:25:00;;;;;;;0.20;0.20;;;8.10;99.90;;;;;;5015111;28;20476;-74
2023/05/07 03:27:25;;;;;;;0.15;0.15;;;8.10;99.90;;;;;;5034321;28;20029;-75
2023/05/07 03:29:51;;;;;;;0.20;0.20;;;8.10;99.90;;;;;;5035638;28;20128;-74
2023/05/07 03:32:16;;;;;;;0.20;0.20;;;8.10;99.90;;;;;;5019996;28;20533;-74
2023/05/07 03:34:42;;;;;;;0.10;0.10;;;8.10;99.90;;;;;;5015458;28;20022;-75
2023/05/07 03:37:07;;;;;;;0.10;0.10;;;8.10;99.90;;;;;;5015422;28;20113;-75
2023/05/07 03:39:33;;;;;;;0.10;0.10;;;8.20;99.90;;;;;;5017376;28;20029;-74
2023/05/07 03:41:58;;;;;;;0.10;0.10;;;8.20;99.90;;;;;;5015472;28;20101;-75
2023/05/07 03:44:24;;;;;;;0.20;0.20;;;8.20;99.90;;;;;;5015713;28;20018;-75
2023/05/07 03:46:50;;;;;;;0.20;0.20;;;8.20;99.90;;;;;;5015589;28;20041;-74
2023/05/07 03:49:15;;;;;;;0.10;0.10;;;8.20;99.90;;;;;;5015688;28;20029;-74
2023/05/07 03:51:41;;;;;;;0.20;0.20;;;8.20;99.90;;;;;;5015598;28;20026;-74
2023/05/07 03:54:07;;;;;;;0.20;0.20;;;8.10;99.90;;;;;;5014175;28;20033;-74
2023/05/07 03:56:32;;;;;;;0.17;0.17;;;8.20;99.90;;;;;;5014909;28;20018;-74
2023/05/07 03:58:58;;;;;;;0.20;0.20;;;8.20;99.90;;;;;;5015712;28;20034;-74
2023/05/07 04:01:23;;;;;;;0.20;0.20;;;8.20;99.90;;;;;;5015358;28;20468;-75
2023/05/07 04:03:49;;;;;;;0.17;0.17;;;8.20;99.90;;;;;;5014878;28;20030;-74
2023/05/07 04:06:17;;;;;;;0.10;0.10;;;8.20;99.90;;;;;;5013833;28;20117;-74
2023/05/07 04:08:42;;;;;;;0.20;0.20;;;8.10;99.90;;;;;;5015575;28;20479;-74
2023/05/07 04:11:08;;;;;;;0.20;0.20;;;8.10;99.90;;;;;;5013430;28;20053;-75
2023/05/07 04:13:33;;;;;;;0.13;0.13;;;8.20;99.90;;;;;;5015590;28;20050;-75
2023/05/07 04:16:02;;;;;;;0.20;0.20;;;8.20;99.90;;;;;;5014993;28;20498;-75
2023/05/07 04:18:27;;;;;;;0.10;0.10;;;8.20;99.90;;;;;;5013869;28;20272;-74
2023/05/07 04:20:53;;;;;;;0.10;0.10;;;8.20;99.90;;;;;;5015258;28;20026;-75
2023/05/07 04:23:18;;;;;;;0.20;0.20;;;8.20;99.90;;;;;;5014516;28;20030;-74
2023/05/07 04:25:45;;;;;;;0.20;0.20;;;8.10;99.90;;;;;;5015229;28;20041;-75
2023/05/07 04:28:11;;;;;;;0.20;0.20;;;8.20;99.90;;;;;;5014792;28;20080;-75
2023/05/07 04:30:36;;;;;;;0.10;0.10;;;8.10;99.90;;;;;;5014949;28;20026;-74
2023/05/07 04:33:02;;;;;;;0.20;0.20;;;8.10;99.90;;;;;;5014303;28;20080;-74
2023/05/07 04:35:28;;;;;;;0.20;0.20;;;8.20;99.90;;;;;;5015044;28;20033;-75
2023/05/07 04:37:53;;;;;;;0.10;0.10;;;8.10;99.90;;;;;;5014651;28;20117;-75
2023/05/07 04:40:19;;;;;;;0.20;0.20;;;8.20;99.90;;;;;;5014689;28;20026;-74
2023/05/07 04:42:44;;;;;;;0.20;0.20;;;8.20;99.90;;;;;;5014685;28;20036;-75
2023/05/07 04:45:10;;;;;;;0.10;0.10;;;8.20;99.90;;;;;;5015178;28;20030;-74
2023/05/07 04:47:36;;;;;;;0.20;0.20;;;8.20;99.90;;;;;;5014014;28;20033;-74
2023/05/07 04:50:02;;;;;;;0.20;0.20;;;8.30;99.90;;;;;;5014535;28;20021;-74
2023/05/07 04:52:27;;;;;;;0.10;0.10;;;8.30;99.90;;;;;;5014382;28;20457;-74
2023/05/07 04:54:53;;;;;;;0.20;0.20;;;8.30;99.90;;;;;;5014989;28;20030;-75
2023/05/07 04:57:18;;;;;;;0.10;0.10;;;8.30;99.90;;;;;;5014367;28;20026;-74
2023/05/07 04:59:44;;;;;;;0.10;0.10;;;8.30;99.90;;;;;;5013904;28;20033;-75
2023/05/07 05:02:10;;;;;;;0.20;0.20;;;8.40;99.90;;;;;;5014492;28;20026;-74
2023/05/07 05:04:36;;;;;;;0.10;0.10;;;8.40;99.90;;;;;;5014124;28;20030;-74
2023/05/07 05:07:03;;;;;;;0.20;0.20;;;8.40;99.90;;;;;;5013949;28;20033;-74
2023/05/07 05:09:30;;;;;;;0.10;0.10;;;8.40;99.90;;;;;;5014352;28;20038;-74
2023/05/07 05:11:55;;;;;;;0.20;0.20;;;8.50;99.90;;;;;;5013680;28;20083;-74
2023/05/07 05:14:21;;;;;;;0.20;0.20;;;8.50;99.90;;;;;;5013997;28;20500;-75
2023/05/07 05:16:47;;;;;;;0.10;0.10;;;8.50;99.90;;;;;;5014015;28;20037;-74
2023/05/07 05:19:12;;;;;;;0.20;0.20;;;8.50;99.90;;;;;;5013962;28;20403;-75
2023/05/07 05:21:38;;;;;;;0.20;0.20;;;8.50;99.90;;;;;;5013589;28;20483;-74
2023/05/07 05:24:03;;;;;;;0.10;0.10;;;8.60;99.90;;;;;;5013901;28;20040;-74
2023/05/07 05:26:29;;;;;;;0.10;0.10;;;8.50;99.90;;;;;;5013814;28;20045;-74
2023/05/07 05:28:54;;;;;;;0.20;0.20;;;8.60;99.90;;;;;;5013609;28;20029;-74
2023/05/07 05:31:21;;;;;;;0.20;0.20;;;8.60;99.90;;;;;;5013996;28;20038;-74
2023/05/07 05:33:46;;;;;;;0.20;0.20;;;8.60;99.90;;;;;;5013695;28;20060;-74
2023/05/07 05:36:12;;;;;;;0.20;0.20;;;8.60;99.90;;;;;;5013682;28;20022;-74
2023/05/07 05:38:39;;;;;;;0.20;0.20;;;8.70;99.90;;;;;;5013331;28;20037;-74
2023/05/07 05:41:04;;;;;;;0.10;0.10;;;8.70;99.90;;;;;;5013705;28;20053;-74
2023/05/07 05:43:30;;;;;;;0.20;0.20;;;8.70;99.90;;;;;;5013850;28;20025;-74
2023/05/07 05:45:56;;;;;;;0.20;0.20;;;8.70;99.90;;;;;;5013782;28;20034;-74
2023/05/07 05:48:22;;;;;;;0.15;0.15;;;8.70;99.90;;;;;;5012278;28;20029;-74
2023/05/07 05:50:48;;;;;;;0.20;0.20;;;8.80;99.90;;;;;;5013499;28;20026;-74
2023/05/07 05:53:13;;;;;;;0.13;0.13;;;8.80;99.90;;;;;;5012963;28;20034;-74
2023/05/07 05:55:39;;;;;;;0.20;0.20;;;8.90;99.90;;;;;;5013446;28;20100;-74
2023/05/07 05:58:05;;;;;;;0.17;0.17;;;8.90;99.90;;;;;;5013367;28;20549;-74
2023/05/07 06:00:30;;;;;;;0.10;0.10;;;9.00;99.90;;;;;;5013357;28;20022;-74
2023/05/07 06:02:56;;;;;;;0.10;0.10;;;9.00;99.90;;;;;;5013618;28;20032;-74
2023/05/07 06:05:21;;;;;;;0.20;0.20;;;9.10;99.90;;;;;;5012971;28;20026;-74
2023/05/07 06:07:47;;;;;;;0.10;0.10;;;9.10;99.90;;;;;;5013183;28;20037;-74
2023/05/07 06:10:12;;;;;;;0.20;0.20;;;9.30;99.90;;;;;;5013259;28;20061;-74
2023/05/07 06:12:39;;;;;;;0.20;0.20;;;9.30;99.90;;;;;;5013186;28;20030;-74
2023/05/07 06:15:05;;;;;;;0.13;0.13;;;9.30;99.90;;;;;;5013251;28;20028;-74
2023/05/07 06:17:31;;;;;;;0.20;0.20;;;9.40;99.90;;;;;;5014355;28;20502;-74
2023/05/07 06:19:56;;;;;;;0.13;0.13;;;9.50;99.90;;;;;;5017695;28;20025;-74
2023/05/07 06:22:22;;;;;;;0.20;0.20;;;9.50;99.90;;;;;;5017297;28;20511;-74
2023/05/07 06:24:47;;;;;;;0.20;0.20;;;9.60;99.90;;;;;;5017196;28;20030;-74
2023/05/07 06:27:13;;;;;;;0.20;0.20;;;9.70;99.90;;;;;;5017156;28;20037;-74
2023/05/07 06:29:38;;;;;;;0.10;0.10;;;9.80;99.90;;;;;;5017374;28;20434;-74
2023/05/07 06:32:12;;;;;;;0.10;0.10;;;9.70;99.90;;;;;;5016459;28;20030;-74
2023/05/07 06:34:38;;;;;;;0.20;0.20;;;9.80;99.90;;;;;;5017429;28;20068;-74
2023/05/07 06:37:04;;;;;;;0.20;0.20;;;9.80;99.90;;;;;;5015684;28;20026;-74
2023/05/07 06:39:30;;;;;;;0.10;0.10;;;9.90;99.90;;;;;;5016980;28;20014;-74
2023/05/07 06:41:56;;;;;;;0.20;0.20;;;9.80;99.90;;;;;;5016666;28;20022;-74
2023/05/07 06:44:21;;;;;;;0.20;0.20;;;9.90;99.90;;;;;;5024454;28;20029;-74
2023/05/07 06:46:47;;;;;;;0.30;0.30;;;9.90;99.90;;;;;;5035805;28;20021;-74
2023/05/07 06:49:13;;;;;;;0.20;0.20;;;9.90;99.90;;;;;;5036150;28;20041;-74
2023/05/07 06:51:38;;;;;;;0.20;0.20;;;10.00;99.90;;;;;;5035930;28;20068;-74
2023/05/07 06:54:04;;;;;;;0.20;0.20;;;10.00;99.90;;;;;;5035092;28;20452;-74
2023/05/07 06:56:30;;;;;;;0.20;0.20;;;9.90;99.90;;;;;;5036106;28;20021;-75
2023/05/07 06:58:56;;;;;;;0.20;0.20;;;9.90;99.90;;;;;;5036382;28;20076;-74
2023/05/07 07:01:22;;;;;;;0.20;0.20;;;9.90;99.90;;;;;;5036354;28;20426;-74
2023/05/07 07:03:47;;;;;;;0.20;0.20;;;10.00;99.90;;;;;;5035813;28;20141;-74
2023/05/07 07:06:13;;;;;;;0.20;0.20;;;10.00;99.90;;;;;;5036037;28;20383;-74
2023/05/07 07:08:38;;;;;;;0.10;0.10;;;10.00;99.90;;;;;;5035362;28;20041;-74
2023/05/07 07:11:05;;;;;;;0.20;0.20;;;10.00;99.90;;;;;;5036048;28;20105;-74
2023/05/07 07:13:31;;;;;;;0.10;0.10;;;10.00;99.90;;;;;;5035856;28;20029;-75
2023/05/07 07:15:56;;;;;;;0.20;0.20;;;10.10;99.90;;;;;;5034712;28;20021;-74
2023/05/07 07:18:22;;;;;;;0.20;0.20;;;10.00;99.90;;;;;;5035370;28;20133;-74
2023/05/07 07:20:48;;;;;;;0.20;0.20;;;10.00;99.90;;;;;;5035810;28;20402;-75
2023/05/07 07:23:14;;;;;;;0.20;0.20;;;10.00;99.90;;;;;;5023069;28;20026;-75
2023/05/07 07:25:39;;;;;;;0.20;0.20;;;10.00;99.90;;;;;;5021643;28;20029;-75
2023/05/07 07:28:05;;;;;;;0.10;0.10;;;10.00;99.90;;;;;;5021885;28;20038;-76
2023/05/07 07:30:31;;;;;;;0.20;0.20;;;10.00;99.90;;;;;;5019769;28;20503;-76
2023/05/07 07:33:02;;;;;;;0.20;0.20;;;10.00;99.90;;;;;;5020309;28;20034;-75
2023/05/07 07:35:28;;;;;;;0.15;0.15;;;9.90;99.90;;;;;;5025268;28;20554;-75
2023/05/07 07:37:53;;;;;;;0.20;0.20;;;10.00;99.90;;;;;;5024720;28;20038;-74
2023/05/07 07:40:19;;;;;;;0.10;0.10;;;10.10;99.90;;;;;;5018323;28;20029;-75
2023/05/07 07:42:45;;;;;;;0.20;0.20;;;10.20;99.90;;;;;;5028691;28;20029;-74
2023/05/07 07:45:10;;;;;;;0.20;0.20;;;10.40;99.90;;;;;;5030027;28;20037;-74
2023/05/07 07:47:36;;;;;;;0.20;0.20;;;10.50;99.90;;;;;;5026214;28;20037;-74
2023/05/07 07:50:01;;;;;;;0.20;0.20;;;10.60;99.90;;;;;;5022987;28;20026;-75
2023/05/07 07:52:27;;;;;;;0.10;0.10;;;10.70;99.90;;;;;;5018050;28;20026;-75
2023/05/07 07:54:52;;;;;;;0.20;0.20;;;10.80;99.90;;;;;;5025333;28;20033;-75
2023/05/07 07:57:18;;;;;;;0.10;0.10;;;10.90;99.90;;;;;;5017133;28;20510;-74
2023/05/07 07:59:43;;;;;;;0.20;0.20;;;11.00;99.90;;;;;;5025220;28;20025;-74
2023/05/07 08:02:09;;;;;;;0.20;0.20;;;11.10;99.90;;;;;;5025260;28;20045;-75
2023/05/07 08:04:35;;;;;;;0.10;0.10;;;11.20;99.90;;;;;;5026399;28;20033;-73
2023/05/07 08:07:00;;;;;;;0.20;0.20;;;11.20;99.90;;;;;;5021599;28;20053;-73
2023/05/07 08:09:26;;;;;;;0.20;0.20;;;11.20;99.90;;;;;;5030473;28;20410;-74
2023/05/07 08:11:52;;;;;;;0.20;0.20;;;11.30;99.90;;;;;;5028065;28;20032;-72
2023/05/07 08:14:18;;;;;;;0.20;0.20;;;11.40;99.90;;;;;;5028258;28;20037;-74
2023/05/07 08:16:43;;;;;;;0.20;0.20;;;11.40;99.90;;;;;;5027471;28;20040;-74
2023/05/07 08:19:09;;;;;;;0.10;0.10;;;11.60;99.90;;;;;;5021665;28;20127;-74
2023/05/07 08:21:39;;;;;;;0.20;0.20;;;11.70;99.90;;;;;;5032163;28;20021;-74
2023/05/07 08:24:05;;;;;;;0.20;0.20;;;11.90;99.90;;;;;;5025291;28;20022;-75
2023/05/07 08:26:30;;;;;;;0.20;0.20;;;12.00;99.90;;;;;;5034562;28;20391;-74
2023/05/07 08:28:56;;;;;;;0.20;0.20;;;12.20;99.90;;;;;;5034310;28;20021;-75
2023/05/07 08:31:21;;;;;;;0.20;0.20;;;12.20;99.90;;;;;;5034502;28;20017;-74
2023/05/07 08:33:47;;;;;;;0.20;0.20;;;12.20;99.90;;;;;;5034109;28;20033;-73
2023/05/07 08:36:13;;;;;;;0.10;0.10;;;12.20;99.90;;;;;;5033812;28;20394;-74
2023/05/07 08:38:40;;;;;;;0.10;0.10;;;12.30;99.90;;;;;;5033357;28;20491;-74
2023/05/07 08:41:07;;;;;;;0.10;0.10;;;12.20;99.90;;;;;;5032373;28;20028;-74
2023/05/07 08:43:35;;;;;;;0.17;0.17;;;12.20;99.90;;;;;;5034412;28;20147;-75
2023/05/07 08:46:02;;;;;;;0.20;0.20;;;12.30;99.90;;;;;;5033752;28;20075;-74
2023/05/07 08:48:30;;;;;;;0.20;0.20;;;12.20;99.90;;;;;;5034332;28;20104;-74
2023/05/07 08:50:55;;;;;;;0.10;0.10;;;12.30;99.90;;;;;;5034125;28;20029;-73
2023/05/07 08:53:21;;;;;;;0.10;0.10;;;12.30;99.90;;;;;;5034149;28;20105;-73
2023/05/07 08:55:48;;;;;;;0.10;0.10;;;12.40;99.90;;;;;;5033976;28;20018;-73
2023/05/07 08:58:13;;;;;;;0.10;0.10;;;12.40;99.90;;;;;;5034138;28;20088;-73
2023/05/07 09:00:41;;;;;;;0.20;0.20;;;12.40;99.90;;;;;;5033726;28;20490;-74
2023/05/07 09:03:06;;;;;;;0.20;0.20;;;12.50;99.90;;;;;;5034082;28;20025;-74
2023/05/07 09:05:32;;;;;;;0.13;0.13;;;12.70;99.90;;;;;;5033649;28;20029;-74
2023/05/07 09:08:02;;;;;;;0.10;0.10;;;12.70;99.90;;;;;;5033136;28;20510;-75
2023/05/07 09:10:28;;;;;;;0.10;0.10;;;12.70;99.90;;;;;;5034081;28;20025;-75
2023/05/07 09:12:54;;;;;;;0.10;0.10;;;12.70;99.90;;;;;;5033814;28;20029;-75
2023/05/07 09:15:20;;;;;;;0.20;0.20;;;12.70;99.90;;;;;;5033862;28;20021;-74
2023/05/07 09:17:46;;;;;;;0.10;0.10;;;12.70;99.90;;;;;;5033169;28;20030;-75
2023/05/07 09:20:11;;;;;;;0.10;0.10;;;12.60;99.90;;;;;;5033663;28;20434;-75
2023/05/07 09:22:38;;;;;;;0.15;0.15;;;12.60;99.90;;;;;;5033542;28;20029;-74
2023/05/07 09:25:05;;;;;;;0.20;0.20;;;12.70;99.90;;;;;;5033711;28;20079;-74
2023/05/07 09:27:31;;;;;;;0.10;0.10;;;12.80;99.90;;;;;;5032970;28;20064;-75
2023/05/07 09:29:57;;;;;;;0.20;0.20;;;12.80;99.90;;;;;;5033571;28;20478;-74
2023/05/07 09:32:22;;;;;;;0.10;0.10;;;12.90;99.90;;;;;;5033430;28;20025;-75
2023/05/07 09:34:48;;;;;;;0.20;0.20;;;13.00;99.90;;;;;;5034078;28;20030;-75
2023/05/07 09:37:16;;;;;;;0.15;0.15;;;13.10;99.90;;;;;;5033499;28;20029;-74
2023/05/07 09:39:43;;;;;;;0.10;0.10;;;13.20;99.90;;;;;;5032918;28;20148;-74
2023/05/07 09:42:11;;;;;;;0.20;0.20;;;13.60;99.90;;;;;;5032016;28;20376;-74
2023/05/07 09:44:37;;;;;;;0.20;0.20;;;13.70;99.90;;;;;;5033218;28;20025;-74
2023/05/07 09:47:07;;;;;;;0.10;0.10;;;13.80;99.90;;;;;;5032822;28;20032;-73
2023/05/07 09:49:37;;;;;;;0.10;0.10;;;13.90;99.90;;;;;;5033565;28;20167;-74
2023/05/07 09:52:06;;;;;;;0.20;0.20;;;13.90;99.90;;;;;;5033155;28;20021;-74
2023/05/07 09:54:33;;;;;;;0.20;0.20;;;13.90;99.90;;;;;;5033321;28;20021;-74
2023/05/07 09:57:02;;;;;;;0.10;0.10;;;14.20;99.90;;;;;;5032717;28;20390;-74
2023/05/07 09:59:29;;;;;;;0.10;0.10;;;14.30;99.90;;;;;;5033236;28;20052;-74
2023/05/07 10:01:58;;;;;;;0.20;0.20;;;14.30;99.90;;;;;;5033180;28;20025;-74
2023/05/07 10:04:26;;;;;;;0.17;0.17;;;14.40;99.90;;;;;;5033232;28;20021;-75
2023/05/07 10:06:51;;;;;;;0.10;0.10;;;14.40;99.90;;;;;;5033058;28;20033;-75
2023/05/07 10:09:18;;;;;;;0.20;0.20;;;14.40;99.90;;;;;;5032989;28;20091;-75
2023/05/07 10:11:43;;;;;;;0.10;0.10;;;14.40;99.90;;;;;;5032571;28;20018;-75
2023/05/07 10:14:10;;;;;;;0.20;0.20;;;14.40;99.90;;;;;;5032955;28;20169;-75
2023/05/07 10:16:36;;;;;;;0.20;0.20;;;14.40;99.90;;;;;;5032926;28;20026;-73
2023/05/07 10:19:04;;;;;;;0.10;0.10;;;14.60;99.90;;;;;;5032656;28;20075;-72
2023/05/07 10:21:31;;;;;;;0.10;0.10;;;14.70;99.90;;;;;;5032988;28;20028;-73
2023/05/07 10:24:10;;;;;;;0.10;0.10;;;14.70;99.90;;;;;;5032918;28;20021;-73
2023/05/07 10:26:36;;;;;;;0.10;0.10;;;14.80;99.90;;;;;;5032657;28;20037;-74
2023/05/07 10:29:11;;;;;;;0.20;0.20;;;15.10;99.90;;;;;;5032929;28;20032;-75
2023/05/07 10:32:06;;;;;;;0.10;0.10;;;15.10;99.90;;;;;;5033242;28;20052;-76
2023/05/07 10:34:43;;;;;;;0.20;0.20;;;15.30;99.90;;;;;;5014598;28;20060;-75
2023/05/07 10:37:10;;;;;;;0.10;0.10;;;15.20;99.90;;;;;;5032870;28;20032;-75
2023/05/07 10:39:36;;;;;;;0.10;0.10;;;15.30;99.90;;;;;;5032741;28;20030;-74
2023/05/07 10:42:12;;;;;;;0.10;0.10;;;15.20;99.90;;;;;;5032277;28;20049;-75
2023/05/07 10:44:38;;;;;;;0.10;0.10;;;15.30;99.90;;;;;;5032715;28;20068;-75
2023/05/07 10:47:11;;;;;;;0.10;0.10;;;15.40;99.90;;;;;;5032675;28;20021;-75
2023/05/07 10:49:46;;;;;;;0.10;0.10;;;15.80;99.90;;;;;;5032664;28;20021;-75
2023/05/07 10:52:15;;;;;;;0.20;0.20;;;15.90;99.90;;;;;;5032898;28;20357;-75
2023/05/07 10:54:42;;;;;;;0.10;0.10;;;15.90;99.90;;;;;;5032113;28;20033;-75
2023/05/07 10:57:35;;;;;;;0.10;0.10;;;15.70;99.90;;;;;;5032577;28;20030;-75
2023/05/07 11:00:01;;;;;;;0.10;0.10;;;15.70;99.90;;;;;;5032559;28;20383;-75
2023/05/07 11:03:06;;;;;;;0.10;0.10;;;16.10;99.90;;;;;;5031286;28;20104;-75
2023/05/07 11:05:33;;;;;;;0.20;0.20;;;16.40;99.90;;;;;;5035428;28;20079;-74
2023/05/07 11:08:01;;;;;;;0.10;0.10;;;16.60;99.90;;;;;;5036010;28;20037;-75
2023/05/07 11:10:48;;;;;;;0.10;0.10;;;16.80;99.90;;;;;;5036095;28;20074;-75
2023/05/07 11:13:14;;;;;;;0.10;0.10;;;16.70;99.90;;;;;;5036576;28;20356;-74
2023/05/07 11:15:43;;;;;;;0.10;0.10;;;16.60;99.90;;;;;;5035763;28;20044;-74
2023/05/07 11:18:10;;;;;;;0.10;0.10;;;17.00;99.90;;;;;;5036056;28;20028;-74
2023/05/07 11:20:59;;;;;;;0.10;0.10;;;16.80;99.90;;;;;;5035986;28;20105;-74
2023/05/07 11:23:37;;;;;;;0.10;0.10;;;16.60;99.90;;;;;;5030479;28;20041;-74
2023/05/07 11:26:05;;;;;;;0.10;0.10;;;16.40;99.90;;;;;;5035429;28;20025;-74
2023/05/07 11:28:36;;;;;;;0.10;0.10;;;16.30;99.90;;;;;;5035879;28;20486;-74
2023/05/07 11:31:02;;;;;;;0.10;0.10;;;16.20;99.90;;;;;;5035930;28;20061;-74
2023/05/07 11:33:29;;;;;;;0.10;0.10;;;16.10;99.90;;;;;;5035149;28;20037;-74
2023/05/07 11:35:56;;;;;;;0.10;0.10;;;16.00;99.90;;;;;;5035636;28;20042;-74
2023/05/07 11:38:21;;;;;;;0.10;0.10;;;16.00;99.90;;;;;;5036004;28;20368;-74
2023/05/07 11:40:51;;;;;;;0.10;0.10;;;16.30;99.90;;;;;;5035141;28;20032;-74
2023/05/07 11:43:16;;;;;;;0.10;0.10;;;16.20;99.90;;;;;;5035589;28;20499;-73
2023/05/07 11:45:42;;;;;;;0.10;0.10;;;16.90;99.90;;;;;;5035485;28;20120;-73
2023/05/07 11:48:07;;;;;;;0.10;0.10;;;17.60;99.90;;;;;;5035505;28;20034;-74
2023/05/07 11:50:33;;;;;;;0.17;0.17;;;18.10;99.90;;;;;;5034971;28;20022;-74
2023/05/07 11:52:58;;;;;;;0.10;0.10;;;18.20;99.90;;;;;;5035318;28;20483;-74
2023/05/07 11:55:25;;;;;;;0.10;0.10;;;18.60;99.90;;;;;;5036064;28;20022;-73
2023/05/07 11:57:52;;;;;;;0.10;0.10;;;19.20;99.90;;;;;;5035179;28;20041;-72
2023/05/07 12:00:17;;;;;;;0.10;0.10;;;19.10;99.90;;;;;;5035406;28;20167;-72
2023/05/07 12:02:45;;;;;;;0.10;0.10;;;18.90;99.90;;;;;;5035217;28;20065;-73
2023/05/07 12:05:10;;;;;;;0.10;0.10;;;18.90;99.90;;;;;;5034792;28;20511;-73
2023/05/07 12:07:36;;;;;;;0.05;0.05;;;19.40;99.90;;;;;;5035001;28;20041;-74
2023/05/07 12:10:08;;;;;;;0.10;0.10;;;20.10;99.90;;;;;;5035394;28;20017;-74
2023/05/07 12:12:41;;;;;;;0.10;0.10;;;19.50;99.90;;;;;;5035028;28;20032;-74
2023/05/07 12:15:07;;;;;;;0.10;0.10;;;19.60;99.90;;;;;;5032176;28;20509;-74
2023/05/07 12:17:33;;;;;;;0.00;0.00;;;19.50;99.90;;;;;;5035323;28;20108;-74
2023/05/07 12:20:00;;;;;;;0.10;0.10;;;19.50;99.90;;;;;;5035539;28;20454;-74
2023/05/07 12:22:26;;;;;;;0.10;0.10;;;19.40;99.90;;;;;;5035014;28;20396;-73
2023/05/07 12:24:58;;;;;;;0.00;0.00;;;19.60;99.90;;;;;;5035426;28;20033;-74
2023/05/07 12:27:24;;;;;;;0.10;0.10;;;20.00;99.90;;;;;;5034964;28;20025;-74
2023/05/07 12:29:50;;;;;;;0.03;0.03;;;19.90;99.90;;;;;;5035889;28;20106;-73
2023/05/07 12:32:22;;;;;;;0.10;0.10;;;20.10;99.90;;;;;;5034693;28;20021;-73
2023/05/07 12:34:51;;;;;;;0.00;0.00;;;19.80;99.90;;;;;;5034605;28;20026;-74
2023/05/07 12:37:23;;;;;;;0.10;0.10;;;19.70;99.90;;;;;;5034568;28;20061;-74
2023/05/07 12:40:02;;;;;;;0.10;0.10;;;19.80;99.90;;;;;;5034521;28;20037;-73
2023/05/07 12:42:34;;;;;;;0.00;0.00;;;20.10;99.90;;;;;;5034574;28;20049;-74
2023/05/07 12:45:06;;;;;;;0.10;0.10;;;19.90;99.90;;;;;;5034503;28;20475;-73
2023/05/07 12:47:33;;;;;;;0.00;0.00;;;20.20;99.90;;;;;;5034377;28;20021;-74
2023/05/07 12:49:59;;;;;;;0.00;0.00;;;20.40;99.90;;;;;;5033030;28;20025;-73